createdAt,value
2023-10-03T00:01:26.480Z,99283.72
2023-10-03T00:03:54.761Z,99279.41
2023-10-03T00:06:22.924Z,99281.03
2023-10-03T00:08:50.990Z,99282.66
2023-10-03T00:11:20.596Z,99287.53
2023-10-03T00:13:51.137Z,99286.44
2023-10-03T00:16:19.709Z,99288.59
2023-10-03T00:18:49.150Z,99285.88
2023-10-03T00:21:17.575Z,99289.66
2023-10-03T00:23:45.639Z,99288.56
2023-10-03T00:26:18.805Z,99277.47
2023-10-03T00:28:47.269Z,99275.88
2023-10-03T00:31:15.614Z,99283.16
2023-10-03T00:33:44.020Z,99281.53
2023-10-03T00:36:24.725Z,99275.00
2023-10-03T00:38:54.247Z,99274.47
2023-10-03T00:41:23.031Z,99276.38
2023-10-03T00:44:02.613Z,99275.56
2023-10-03T00:46:31.752Z,99276.09
2023-10-03T00:49:04.776Z,99269.84
2023-10-03T00:51:36.491Z,99267.94
2023-10-03T00:54:05.437Z,99263.59
2023-10-03T00:56:33.511Z,99263.38
2023-10-03T00:59:02.142Z,99258.19
2023-10-03T01:01:34.779Z,99260.91
2023-10-03T01:04:17.667Z,99263.06
2023-10-03T01:06:47.469Z,99261.97
2023-10-03T01:09:21.232Z,99253.84
2023-10-03T01:11:53.356Z,99251.69
2023-10-03T01:14:21.620Z,99248.44
2023-10-03T01:16:50.977Z,99238.13
2023-10-03T01:19:22.656Z,99250.56
2023-10-03T01:21:53.299Z,99240.31
2023-10-03T01:24:25.778Z,99241.41
2023-10-03T01:26:54.966Z,99232.97
2023-10-03T01:29:23.660Z,99232.69
2023-10-03T01:31:55.502Z,99220.53
2023-10-03T01:34:24.592Z,99232.72
2023-10-03T01:36:52.720Z,99225.69
2023-10-03T01:39:22.132Z,99228.16
2023-10-03T01:41:50.176Z,99226.78
2023-10-03T01:44:19.704Z,99226.25
2023-10-03T01:46:48.489Z,99219.75
2023-10-03T01:49:17.272Z,99219.19
2023-10-03T01:51:45.356Z,99228.94
2023-10-03T01:54:13.328Z,99227.31
2023-10-03T01:56:42.864Z,99232.72
2023-10-03T01:59:11.190Z,99224.06
2023-10-03T02:01:39.572Z,99222.44
2023-10-03T02:04:08.313Z,99224.06
2023-10-03T02:06:36.857Z,99227.84
2023-10-03T02:09:08.568Z,99220.78
2023-10-03T02:11:36.685Z,99228.09
2023-10-03T02:14:09.147Z,99227.84
2023-10-03T02:16:42.686Z,99221.06
2023-10-03T02:19:11.037Z,99217.00
2023-10-03T02:21:41.425Z,99221.31
2023-10-03T02:24:10.203Z,99211.84
2023-10-03T02:26:38.865Z,99208.06
2023-10-03T02:29:08.387Z,99202.38
2023-10-03T02:31:36.464Z,99201.00
2023-10-03T02:34:04.680Z,99192.91
2023-10-03T02:36:32.714Z,99189.88
2023-10-03T02:39:02.266Z,99187.75
2023-10-03T02:41:31.997Z,99181.25
2023-10-03T02:44:00.045Z,99183.38
2023-10-03T02:46:31.334Z,99173.66
2023-10-03T02:48:59.456Z,99173.66
2023-10-03T02:51:27.840Z,99164.44
2023-10-03T02:53:55.852Z,99160.06
2023-10-03T02:56:23.974Z,99152.19
2023-10-03T02:58:52.314Z,99141.94
2023-10-03T03:01:20.942Z,99143.84
2023-10-03T03:03:51.185Z,99135.97
2023-10-03T03:06:19.960Z,99135.44
2023-10-03T03:08:47.824Z,99126.50
2023-10-03T03:11:16.798Z,99133.00
2023-10-03T03:13:44.827Z,99119.75
2023-10-03T03:16:15.796Z,99117.28
2023-10-03T03:18:45.645Z,99123.78
2023-10-03T03:21:21.813Z,99126.22
2023-10-03T03:23:58.987Z,99123.78
2023-10-03T03:26:38.253Z,99123.25
2023-10-03T03:29:21.051Z,99118.34
2023-10-03T03:31:50.763Z,99118.94
2023-10-03T03:34:20.907Z,99112.94
2023-10-03T03:36:51.208Z,99106.75
2023-10-03T03:39:22.150Z,99102.69
2023-10-03T03:41:50.997Z,99101.56
2023-10-03T03:44:20.608Z,99104.25
2023-10-03T03:46:49.521Z,99096.97
2023-10-03T03:49:20.373Z,99112.41
2023-10-03T03:51:48.546Z,99110.22
2023-10-03T03:54:18.268Z,99109.13
2023-10-03T03:56:46.841Z,99105.91
2023-10-03T03:59:17.280Z,99103.72
2023-10-03T04:01:45.821Z,99105.09
2023-10-03T04:04:14.131Z,99108.59
2023-10-03T04:06:43.678Z,99106.16
2023-10-03T04:09:15.515Z,99118.31
2023-10-03T04:11:45.393Z,99117.53
2023-10-03T04:14:13.458Z,99123.72
2023-10-03T04:16:42.855Z,99113.47
2023-10-03T04:19:11.802Z,99114.56
2023-10-03T04:21:41.840Z,99108.31
2023-10-03T04:24:12.532Z,99120.00
2023-10-03T04:26:44.322Z,99120.25
2023-10-03T04:29:16.583Z,99109.16
2023-10-03T04:31:45.746Z,99103.19
2023-10-03T04:34:17.776Z,99091.56
2023-10-03T04:36:46.830Z,99089.69
2023-10-03T04:39:15.241Z,99085.88
2023-10-03T04:41:45.360Z,99075.31
2023-10-03T04:44:18.852Z,99082.06
2023-10-03T04:46:47.561Z,99078.81
2023-10-03T04:49:16.053Z,99076.66
2023-10-03T04:51:48.974Z,99064.19
2023-10-03T04:54:19.074Z,99063.66
2023-10-03T04:56:50.251Z,99053.66
2023-10-03T04:59:22.457Z,99046.88
2023-10-03T05:01:52.375Z,99038.75
2023-10-03T05:04:20.554Z,99043.91
2023-10-03T05:06:50.540Z,99038.78
2023-10-03T05:09:19.632Z,99044.72
2023-10-03T05:11:50.307Z,99049.59
2023-10-03T05:14:20.313Z,99048.78
2023-10-03T05:16:52.296Z,99052.84
2023-10-03T05:19:20.674Z,99050.16
2023-10-03T05:21:49.070Z,99049.59
2023-10-03T05:24:17.829Z,99038.22
2023-10-03T05:26:45.612Z,99037.44
2023-10-03T05:29:13.676Z,99039.31
2023-10-03T05:31:43.149Z,99039.03
2023-10-03T05:34:11.337Z,99036.06
2023-10-03T05:36:40.146Z,99027.13
2023-10-03T05:39:13.176Z,99030.38
2023-10-03T05:41:42.410Z,99023.59
2023-10-03T05:44:13.202Z,99014.94
2023-10-03T05:46:43.611Z,99007.59
2023-10-03T05:49:12.148Z,98998.94
2023-10-03T05:51:41.152Z,98995.97
2023-10-03T05:54:09.339Z,98996.50
2023-10-03T05:56:38.350Z,98989.75
2023-10-03T05:59:08.366Z,98990.00
2023-10-03T06:01:36.528Z,98998.69
2023-10-03T06:04:06.813Z,98998.94
2023-10-03T06:06:34.985Z,98998.66
2023-10-03T06:09:03.990Z,99005.41
2023-10-03T06:11:32.760Z,99008.66
2023-10-03T06:14:00.895Z,99000.81
2023-10-03T06:16:29.549Z,99004.06
2023-10-03T06:18:58.651Z,99005.41
2023-10-03T06:21:28.316Z,98997.53
2023-10-03T06:23:56.550Z,98983.41
2023-10-03T06:26:24.614Z,98969.28
2023-10-03T06:28:52.637Z,98971.47
2023-10-03T06:31:20.649Z,98991.50
2023-10-03T06:33:48.938Z,98987.16
2023-10-03T06:36:17.833Z,98994.16
2023-10-03T06:38:47.010Z,98996.56
2023-10-03T06:41:20.587Z,98997.13
2023-10-03T06:43:48.830Z,99005.00
2023-10-03T06:46:17.395Z,98991.41
2023-10-03T06:48:46.600Z,98986.78
2023-10-03T06:51:14.855Z,98970.28
2023-10-03T06:53:43.801Z,98973.22
2023-10-03T06:56:13.194Z,98962.63
2023-10-03T06:58:45.772Z,98957.69
2023-10-03T07:01:14.343Z,98950.63
2023-10-03T07:03:42.455Z,98939.19
2023-10-03T07:06:10.783Z,98934.56
2023-10-03T07:08:39.400Z,98928.81
2023-10-03T07:11:13.946Z,98930.16
2023-10-03T07:13:51.067Z,98939.63
2023-10-03T07:16:20.105Z,98946.66
2023-10-03T07:18:51.206Z,98958.66
2023-10-03T07:21:19.564Z,98951.88
2023-10-03T07:23:47.685Z,98944.28
2023-10-03T07:26:17.121Z,98948.31
2023-10-03T07:28:45.120Z,98954.81
2023-10-03T07:31:15.182Z,98958.03
2023-10-03T07:33:45.656Z,98962.91
2023-10-03T07:36:14.917Z,98967.97
2023-10-03T07:38:43.109Z,98964.97
2023-10-03T07:41:12.196Z,98959.72
2023-10-03T07:43:42.071Z,98952.88
2023-10-03T07:46:10.514Z,98933.03
2023-10-03T07:48:38.685Z,98932.16
2023-10-03T07:51:07.157Z,98929.69
2023-10-03T07:53:37.821Z,98924.97
2023-10-03T07:56:10.891Z,98924.41
2023-10-03T07:58:38.857Z,98933.28
2023-10-03T08:01:08.993Z,98921.06
2023-10-03T08:03:37.083Z,98906.09
2023-10-03T08:06:07.879Z,98894.88
2023-10-03T08:08:38.700Z,98896.78
2023-10-03T08:11:08.318Z,98897.50
2023-10-03T08:13:40.491Z,98893.94
2023-10-03T08:16:10.333Z,98889.31
2023-10-03T08:18:47.532Z,98893.81
2023-10-03T08:21:15.778Z,98890.25
2023-10-03T08:23:47.790Z,98894.28
2023-10-03T08:26:15.916Z,98893.94
2023-10-03T08:28:43.953Z,98897.16
2023-10-03T08:31:13.439Z,98904.22
2023-10-03T08:33:41.648Z,98899.22
2023-10-03T08:36:16.625Z,98902.41
2023-10-03T08:38:45.795Z,98896.31
2023-10-03T08:41:19.119Z,98891.75
2023-10-03T08:43:55.547Z,98878.59
2023-10-03T08:46:30.833Z,98882.19
2023-10-03T08:49:02.913Z,98879.38
2023-10-03T08:51:34.162Z,98886.88
2023-10-03T08:54:10.474Z,98875.31
2023-10-03T08:56:42.429Z,98880.13
2023-10-03T08:59:11.256Z,98868.13
2023-10-03T09:01:46.846Z,98872.06
2023-10-03T09:04:18.541Z,98872.81
2023-10-03T09:06:47.300Z,98870.41
2023-10-03T09:09:17.939Z,98855.59
2023-10-03T09:11:52.663Z,98849.53
2023-10-03T09:14:22.230Z,98847.53
2023-10-03T09:16:54.219Z,98844.41
2023-10-03T09:19:25.924Z,98843.31
2023-10-03T09:21:54.251Z,98838.84
2023-10-03T09:24:23.248Z,98836.34
2023-10-03T09:26:55.640Z,98836.03
2023-10-03T09:29:34.219Z,98825.63
2023-10-03T09:32:14.128Z,98823.94
2023-10-03T09:34:43.526Z,98835.81
2023-10-03T09:37:12.198Z,98831.41
2023-10-03T09:39:50.892Z,98835.66
2023-10-03T09:42:24.997Z,98831.19
2023-10-03T09:44:59.469Z,98820.47
2023-10-03T09:47:36.539Z,98815.72
2023-10-03T09:50:09.506Z,98820.59
2023-10-03T09:52:47.141Z,98816.63
2023-10-03T09:55:23.310Z,98807.31
2023-10-03T09:57:56.505Z,98801.28
2023-10-03T10:00:42.072Z,98786.69
2023-10-03T10:03:15.710Z,98788.50
2023-10-03T10:05:55.074Z,98772.25
2023-10-03T10:08:41.218Z,98771.13
2023-10-03T10:11:11.295Z,98777.72
2023-10-03T10:13:48.281Z,98770.63
2023-10-03T10:16:22.069Z,98762.59
2023-10-03T10:19:02.639Z,98758.47
2023-10-03T10:21:33.202Z,98764.09
2023-10-03T10:24:29.766Z,98763.31
2023-10-03T10:27:01.367Z,98759.13
2023-10-03T10:29:30.147Z,98758.53
2023-10-03T10:32:01.504Z,98755.19
2023-10-03T10:34:34.128Z,98748.19
2023-10-03T10:37:11.289Z,98746.75
2023-10-03T10:40:23.209Z,98745.94
2023-10-03T10:43:12.740Z,98749.78
2023-10-03T10:45:42.701Z,98743.53
2023-10-03T10:48:13.091Z,98743.63
2023-10-03T10:51:12.427Z,98736.63
2023-10-03T10:53:41.351Z,98742.88
2023-10-03T10:56:11.182Z,98720.25
2023-10-03T10:59:05.365Z,98722.38
2023-10-03T11:01:43.872Z,98724.78
2023-10-03T11:04:24.755Z,98725.28
2023-10-03T11:06:54.658Z,98704.72
2023-10-03T11:09:24.411Z,98691.91
2023-10-03T11:11:53.389Z,98700.41
2023-10-03T11:14:30.827Z,98698.31
2023-10-03T11:16:59.961Z,98689.47
2023-10-03T11:19:31.581Z,98685.13
2023-10-03T11:22:01.339Z,98679.88
2023-10-03T11:24:34.357Z,98667.03
2023-10-03T11:27:02.411Z,98677.94
2023-10-03T11:29:38.851Z,98673.47
2023-10-03T11:32:18.060Z,98667.41
2023-10-03T11:34:46.417Z,98665.16
2023-10-03T11:40:14.465Z,98655.84
2023-10-03T11:42:47.025Z,98648.56
2023-10-03T11:45:19.953Z,98648.13
2023-10-03T11:48:08.187Z,98649.94
2023-10-03T11:50:38.175Z,98649.31
2023-10-03T11:53:06.996Z,98642.41
2023-10-03T11:55:37.759Z,98641.97
2023-10-03T11:58:07.872Z,98640.53
2023-10-03T12:00:38.199Z,98632.50
2023-10-03T12:03:07.742Z,98622.72
2023-10-03T12:05:37.564Z,98617.72
2023-10-03T12:08:08.507Z,98626.59
2023-10-03T12:10:37.952Z,98615.81
2023-10-03T12:13:06.140Z,98612.81
2023-10-03T12:15:35.633Z,98608.78
2023-10-03T12:18:03.969Z,98594.53
2023-10-03T12:20:34.971Z,98589.69
2023-10-03T12:23:05.467Z,98594.69
2023-10-03T12:25:33.537Z,98590.00
2023-10-03T12:28:02.975Z,98577.94
2023-10-03T12:31:26.472Z,98570.06
2023-10-03T12:34:21.762Z,98573.00
2023-10-03T12:37:23.755Z,98572.66
2023-10-03T12:43:15.578Z,98558.97
2023-10-03T12:46:14.265Z,98552.56
2023-10-03T12:48:44.695Z,98547.38
2023-10-03T12:51:13.303Z,98551.09
2023-10-03T12:54:23.741Z,98540.63
2023-10-03T12:57:16.895Z,98543.81
2023-10-03T13:00:08.659Z,98537.53
2023-10-03T13:02:58.152Z,98534.81
2023-10-03T13:05:29.406Z,98531.91
2023-10-03T13:09:07.483Z,98526.91
2023-10-03T13:11:50.710Z,98519.69
2023-10-03T13:17:17.826Z,98510.97
2023-10-03T13:19:46.246Z,98503.72
2023-10-03T13:22:37.316Z,98509.19
2023-10-03T13:25:09.067Z,98494.22
2023-10-03T13:27:44.586Z,98496.28
2023-10-03T13:30:34.670Z,98489.19
2023-10-03T13:33:17.472Z,98488.41
2023-10-03T13:35:56.089Z,98483.72
2023-10-03T13:38:27.071Z,98477.88
2023-10-03T13:40:55.113Z,98479.69
2023-10-03T13:43:30.768Z,98474.34
2023-10-03T13:46:01.544Z,98480.28
2023-10-03T13:48:37.102Z,98473.69
2023-10-03T13:51:05.870Z,98458.66
2023-10-03T13:53:34.773Z,98464.91
2023-10-03T13:56:03.977Z,98454.91
2023-10-03T13:58:53.683Z,98454.50
2023-10-03T14:01:24.662Z,98457.13
2023-10-03T14:04:01.533Z,98452.16
2023-10-03T14:06:31.484Z,98445.66
2023-10-03T14:09:07.223Z,98442.44
2023-10-03T14:12:09.852Z,98439.84
2023-10-03T14:14:52.637Z,98442.31
2023-10-03T14:17:23.144Z,98430.75
2023-10-03T14:19:55.686Z,98433.81
2023-10-03T14:22:25.947Z,98434.75
2023-10-03T14:24:54.115Z,98427.03
2023-10-03T14:30:37.954Z,98430.13
2023-10-03T14:33:11.337Z,98424.28
2023-10-03T14:35:45.038Z,98412.88
2023-10-03T14:38:14.853Z,98416.06
2023-10-03T14:40:54.548Z,98414.81
2023-10-03T14:43:41.121Z,98417.22
2023-10-03T14:46:11.929Z,98411.09
2023-10-03T14:48:42.365Z,98416.91
2023-10-03T14:51:28.071Z,98401.34
2023-10-03T14:53:59.564Z,98395.41
2023-10-03T14:56:27.636Z,98395.75
2023-10-03T14:58:55.743Z,98389.47
2023-10-03T15:01:46.156Z,98391.44
2023-10-03T15:04:15.628Z,98379.09
2023-10-03T15:06:48.336Z,98376.34
2023-10-03T15:09:16.458Z,98375.53
2023-10-03T15:12:00.786Z,98377.00
2023-10-03T15:14:30.610Z,98363.97
2023-10-03T15:17:02.361Z,98358.69
2023-10-03T15:19:30.359Z,98364.69
2023-10-03T15:22:04.988Z,98363.72
2023-10-03T15:24:36.188Z,98365.81
2023-10-03T15:27:11.001Z,98356.22
2023-10-03T15:29:39.443Z,98355.56
2023-10-03T15:32:10.714Z,98344.63
2023-10-03T15:34:44.541Z,98351.69
2023-10-03T15:37:14.328Z,98353.50
2023-10-03T15:39:42.414Z,98352.53
2023-10-03T15:42:11.207Z,98345.78
2023-10-03T15:44:43.922Z,98351.09
2023-10-03T15:47:16.540Z,98344.72
2023-10-03T15:49:44.674Z,98337.00
2023-10-03T15:52:14.052Z,98333.50
2023-10-03T15:54:42.999Z,98329.66
2023-10-03T15:57:12.477Z,98334.97
2023-10-03T15:59:40.885Z,98335.28
2023-10-03T16:02:08.993Z,98336.44
2023-10-03T16:04:39.521Z,98330.84
2023-10-03T16:07:07.744Z,98334.97
2023-10-03T16:09:37.304Z,98327.91
2023-10-03T16:12:06.656Z,98329.38
2023-10-03T16:14:34.670Z,98328.56
2023-10-03T16:17:02.663Z,98338.69
2023-10-03T16:19:32.556Z,98340.91
2023-10-03T16:22:00.916Z,98341.88
2023-10-03T16:24:29.106Z,98343.47
2023-10-03T16:26:59.089Z,98350.53
2023-10-03T16:29:29.508Z,98346.00
2023-10-03T16:31:57.837Z,98347.59
2023-10-03T16:34:27.226Z,98349.19
2023-10-03T16:36:55.272Z,98345.34
2023-10-03T16:39:25.693Z,98339.91
2023-10-03T16:41:53.975Z,98349.97
2023-10-03T16:44:26.562Z,98344.22
2023-10-03T16:46:54.589Z,98341.16
2023-10-03T16:49:22.657Z,98343.22
2023-10-03T16:51:51.210Z,98340.34
2023-10-03T16:54:26.663Z,98342.88
2023-10-03T16:56:54.793Z,98351.03
2023-10-03T16:59:22.816Z,98359.03
2023-10-03T17:01:55.263Z,98366.91
2023-10-03T17:04:23.261Z,98362.88
2023-10-03T17:06:51.764Z,98356.13
2023-10-03T17:09:19.980Z,98346.50
2023-10-03T17:11:52.370Z,98352.56
2023-10-03T17:14:20.396Z,98360.38
2023-10-03T17:16:49.229Z,98356.69
2023-10-03T17:19:18.741Z,98356.69
2023-10-03T17:21:46.718Z,98354.94
2023-10-03T17:24:15.791Z,98344.78
2023-10-03T17:26:44.229Z,98349.31
2023-10-03T17:29:16.986Z,98348.50
2023-10-03T17:31:45.076Z,98344.47
2023-10-03T17:34:13.740Z,98344.44
2023-10-03T17:36:46.143Z,98338.03
2023-10-03T17:39:18.766Z,98340.75
2023-10-03T17:41:47.017Z,98343.78
2023-10-03T17:44:15.763Z,98354.16
2023-10-03T17:46:43.993Z,98354.00
2023-10-03T17:49:12.087Z,98351.41
2023-10-03T17:51:40.226Z,98343.38
2023-10-03T17:54:23.058Z,98337.72
2023-10-03T17:56:58.119Z,98334.97
2023-10-03T17:59:27.161Z,98339.91
2023-10-03T18:01:56.489Z,98332.50
2023-10-03T18:04:25.052Z,98342.38
2023-10-03T18:06:54.966Z,98337.84
2023-10-03T18:09:26.333Z,98341.31
2023-10-03T18:11:56.090Z,98325.41
2023-10-03T18:14:24.331Z,98334.69
2023-10-03T18:16:52.859Z,98337.66
2023-10-03T18:19:20.998Z,98331.53
2023-10-03T18:21:49.149Z,98331.16
2023-10-03T18:24:17.512Z,98333.88
2023-10-03T18:26:49.188Z,98329.38
2023-10-03T18:29:18.295Z,98332.69
2023-10-03T18:31:46.369Z,98333.63
2023-10-03T18:34:14.524Z,98328.50
2023-10-03T18:36:42.877Z,98330.19
2023-10-03T18:39:11.175Z,98325.88
2023-10-03T18:41:39.204Z,98332.44
2023-10-03T18:44:11.027Z,98333.94
2023-10-03T18:46:39.546Z,98327.31
2023-10-03T18:49:07.900Z,98316.75
2023-10-03T18:51:36.372Z,98324.09
2023-10-03T18:54:12.727Z,98322.09
2023-10-03T18:56:41.177Z,98320.50
2023-10-03T18:59:10.572Z,98319.38
2023-10-03T19:01:49.038Z,98325.41
2023-10-03T19:04:18.078Z,98320.09
2023-10-03T19:06:46.427Z,98322.81
2023-10-03T19:09:15.039Z,98322.41
2023-10-03T19:11:46.597Z,98322.41
2023-10-03T19:14:16.524Z,98321.41
2023-10-03T19:16:45.829Z,98322.03
2023-10-03T19:19:14.663Z,98324.03
2023-10-03T19:21:43.214Z,98312.47
2023-10-03T19:24:11.588Z,98317.28
2023-10-03T19:26:39.885Z,98311.97
2023-10-03T19:29:13.218Z,98313.38
2023-10-03T19:31:45.688Z,98308.84
2023-10-03T19:34:13.820Z,98316.00
2023-10-03T19:36:41.869Z,98309.53
2023-10-03T19:39:11.811Z,98309.34
2023-10-03T19:41:41.437Z,98304.69
2023-10-03T19:44:13.885Z,98307.31
2023-10-03T19:46:51.728Z,98305.28
2023-10-03T19:49:19.758Z,98303.25
2023-10-03T19:51:49.050Z,98301.66
2023-10-03T19:54:17.157Z,98308.50
2023-10-03T19:56:45.607Z,98302.84
2023-10-03T19:59:13.795Z,98305.66
2023-10-03T20:01:42.058Z,98302.44
2023-10-03T20:04:12.311Z,98304.63
2023-10-03T20:06:40.617Z,98303.34
2023-10-03T20:09:12.328Z,98303.63
2023-10-03T20:11:41.193Z,98303.41
2023-10-03T20:14:09.848Z,98307.97
2023-10-03T20:16:38.325Z,98297.97
2023-10-03T20:19:10.170Z,98306.44
2023-10-03T20:21:40.527Z,98308.94
2023-10-03T20:24:09.161Z,98301.19
2023-10-03T20:26:37.108Z,98303.38
2023-10-03T20:29:06.490Z,98305.38
2023-10-03T20:31:34.899Z,98296.28
2023-10-03T20:34:08.201Z,98298.78
2023-10-03T20:36:36.285Z,98299.88
2023-10-03T20:39:07.202Z,98295.50
2023-10-03T20:41:35.401Z,98299.88
2023-10-03T20:44:03.451Z,98305.25
2023-10-03T20:46:31.491Z,98300.91
2023-10-03T20:48:59.578Z,98300.41
2023-10-03T20:51:27.647Z,98304.72
2023-10-03T20:53:55.867Z,98309.94
2023-10-03T20:56:25.341Z,98314.53
2023-10-03T20:58:55.753Z,98312.72
2023-10-03T21:01:26.854Z,98311.31
2023-10-03T21:04:05.333Z,98313.28
2023-10-03T21:06:35.818Z,98309.75
2023-10-03T21:09:04.482Z,98301.94
2023-10-03T21:11:37.963Z,98312.56
2023-10-03T21:14:08.402Z,98304.00
2023-10-03T21:16:38.364Z,98307.22
2023-10-03T21:19:06.580Z,98311.59
2023-10-03T21:21:34.936Z,98316.00
2023-10-03T21:24:03.570Z,98305.75
2023-10-03T21:26:31.670Z,98310.63
2023-10-03T21:29:02.186Z,98309.13
2023-10-03T21:31:30.361Z,98314.53
2023-10-03T21:34:00.368Z,98315.84
2023-10-03T21:36:28.561Z,98312.34
2023-10-03T21:38:56.594Z,98308.03
2023-10-03T21:41:24.708Z,98299.34
2023-10-03T21:43:55.000Z,98296.28
2023-10-03T21:46:25.458Z,98302.50
2023-10-03T21:48:53.738Z,98312.19
2023-10-03T21:51:21.799Z,98304.00
2023-10-03T21:53:50.949Z,98304.50
2023-10-03T21:56:19.214Z,98304.19
2023-10-03T21:58:47.713Z,98305.00
2023-10-03T22:01:17.571Z,98305.00
2023-10-03T22:03:47.364Z,98294.97
2023-10-03T22:06:15.367Z,98299.00
2023-10-03T22:08:43.613Z,98302.78
2023-10-03T22:11:12.993Z,98302.78
2023-10-03T22:13:42.353Z,98306.59
2023-10-03T22:16:10.742Z,98300.38
2023-10-03T22:18:45.515Z,98303.03
2023-10-03T22:21:16.110Z,98306.47
2023-10-03T22:23:46.912Z,98313.75
2023-10-03T22:26:19.969Z,98307.50
2023-10-03T22:28:51.209Z,98305.88
2023-10-03T22:31:24.219Z,98310.25
2023-10-03T22:33:58.610Z,98302.72
2023-10-03T22:36:29.687Z,98308.66
2023-10-03T22:38:59.968Z,98316.50
2023-10-03T22:41:28.025Z,98301.31
2023-10-03T22:43:57.370Z,98305.38
2023-10-03T22:46:26.481Z,98304.63
2023-10-03T22:48:54.581Z,98308.22
2023-10-03T22:51:22.755Z,98300.84
2023-10-03T22:53:54.200Z,98297.09
2023-10-03T22:56:26.514Z,98293.28
2023-10-03T22:58:55.271Z,98297.28
2023-10-03T23:01:26.523Z,98295.47
2023-10-03T23:04:00.463Z,98284.84
2023-10-03T23:06:29.780Z,98291.00
2023-10-03T23:08:59.425Z,98297.59
2023-10-03T23:11:27.565Z,98297.13
2023-10-03T23:13:56.939Z,98289.03
2023-10-03T23:16:30.311Z,98289.63
2023-10-03T23:19:02.692Z,98287.84
2023-10-03T23:21:31.265Z,98289.28
2023-10-03T23:24:01.661Z,98287.41
2023-10-03T23:26:30.675Z,98290.94
2023-10-03T23:28:58.946Z,98302.03
2023-10-03T23:31:35.901Z,98291.00
2023-10-03T23:34:08.237Z,98297.47
2023-10-03T23:36:36.504Z,98304.56
2023-10-03T23:39:07.705Z,98306.75
2023-10-03T23:41:38.530Z,98310.78
2023-10-03T23:44:08.236Z,98312.97
2023-10-03T23:46:36.365Z,98315.59
2023-10-03T23:49:06.083Z,98306.34
2023-10-03T23:51:34.279Z,98310.38
2023-10-03T23:54:08.390Z,98311.25
2023-10-03T23:56:40.457Z,98306.66
2023-10-03T23:59:11.190Z,98302.84
